Time;durP1;ratioP1;P1;durP2;ratioP2;P2;SDS_P1;SDS_P2;PMS_P1;PMS_P2;Temp;Humidity;BMP_temperature;BMP_pressure;BME280_temperature;BME280_humidity;BME280_pressure;Samples;Min_cycle;Max_cycle;Signal;HPM_P1;HPM_P2
2022/06/30 00:01:37;;;;;;;4.33;3.93;;;;;;;19.60;65.30;100059.22;5118056;28;21005;-63
2022/06/30 00:04:04;;;;;;;4.90;4.30;;;;;;;19.69;65.03;100053.41;5118649;28;20478;-63
2022/06/30 00:06:31;;;;;;;4.50;3.93;;;;;;;19.71;64.81;100055.94;5118582;28;21001;-63
2022/06/30 00:08:58;;;;;;;4.43;4.03;;;;;;;19.65;65.00;100057.59;5119130;28;20896;-64
2022/06/30 00:11:26;;;;;;;4.80;3.70;;;;;;;19.68;64.83;100062.59;5118453;28;20470;-64
2022/06/30 00:13:53;;;;;;;4.83;4.33;;;;;;;19.71;64.73;100062.19;5118209;28;20446;-65
2022/06/30 00:16:20;;;;;;;4.07;3.77;;;;;;;19.62;65.50;100055.28;5117697;28;20686;-65
2022/06/30 00:18:47;;;;;;;4.30;3.90;;;;;;;19.63;64.90;100062.34;5119494;28;20454;-65
2022/06/30 00:21:13;;;;;;;8.60;4.53;;;;;;;19.71;64.37;100064.06;5117943;28;21134;-65
2022/06/30 00:23:40;;;;;;;4.00;3.60;;;;;;;19.76;64.58;100064.31;5118544;28;20513;-65
2022/06/30 00:26:07;;;;;;;6.37;4.17;;;;;;;19.70;64.89;100046.09;5118521;28;20816;-65
2022/06/30 00:28:35;;;;;;;4.57;4.17;;;;;;;19.61;65.29;100047.34;5119723;28;20686;-66
2022/06/30 00:31:02;;;;;;;5.00;3.90;;;;;;;19.47;67.19;100035.63;5118279;28;20486;-66
2022/06/30 00:33:29;;;;;;;6.23;4.10;;;;;;;19.56;66.87;100046.09;5118438;28;20477;-66
2022/06/30 00:35:55;;;;;;;4.70;4.13;;;;;;;19.48;66.74;100046.28;5118349;28;20485;-65
2022/06/30 00:38:22;;;;;;;5.17;4.63;;;;;;;19.32;67.74;100046.63;5118875;28;20444;-66
2022/06/30 00:40:49;;;;;;;4.90;3.80;;;;;;;19.20;68.15;100049.09;5118385;28;20477;-66
2022/06/30 00:43:16;;;;;;;4.93;4.53;;;;;;;19.03;68.62;100039.63;5118879;28;20505;-66
2022/06/30 00:45:45;;;;;;;4.37;3.97;;;;;;;18.91;69.14;100042.06;5117393;28;20511;-66
2022/06/30 00:48:13;;;;;;;4.67;4.17;;;;;;;18.93;69.29;100042.72;5119103;28;20531;-66
2022/06/30 00:50:40;;;;;;;4.60;4.20;;;;;;;18.92;69.31;100031.03;5118085;28;20501;-65
2022/06/30 00:53:08;;;;;;;6.77;4.10;;;;;;;18.99;68.46;100028.34;5118653;28;20466;-66
2022/06/30 00:55:35;;;;;;;6.13;4.23;;;;;;;19.06;68.51;100037.38;5118450;28;21353;-66
2022/06/30 00:58:04;;;;;;;4.97;4.20;;;;;;;19.05;68.40;100038.38;5119354;28;20454;-66
2022/06/30 01:00:33;;;;;;;4.00;3.70;;;;;;;18.99;68.34;100036.47;5117794;28;20486;-65
2022/06/30 01:03:02;;;;;;;7.20;4.77;;;;;;;18.97;68.65;100039.41;5117959;28;20513;-66
2022/06/30 01:05:29;;;;;;;4.47;3.43;;;;;;;18.95;69.14;100032.50;5118309;28;20461;-65
2022/06/30 01:07:56;;;;;;;5.03;4.23;;;;;;;18.91;68.88;100026.66;5121717;28;20472;-66
2022/06/30 01:13:07;;;;;;;6.13;4.60;;;;;;;18.86;68.54;100025.59;5122681;28;20456;-66
2022/06/30 01:15:34;;;;;;;4.93;4.43;;;;;;;18.84;68.27;100025.78;5121627;28;20509;-66
2022/06/30 01:18:02;;;;;;;4.63;4.17;;;;;;;18.97;68.33;100028.56;5122017;28;20482;-65
2022/06/30 01:20:31;;;;;;;4.60;4.20;;;;;;;18.85;69.73;100018.47;5121118;28;20466;-65
2022/06/30 01:23:00;;;;;;;5.80;4.40;;;;;;;18.90;70.71;100029.56;5122197;28;20528;-65
2022/06/30 01:25:27;;;;;;;4.87;4.47;;;;;;;18.78;72.30;100013.00;5121248;28;20498;-65
2022/06/30 01:27:53;;;;;;;4.70;4.30;;;;;;;18.72;71.58;100014.63;5122107;28;20812;-65
2022/06/30 01:30:20;;;;;;;6.03;4.80;;;;;;;18.63;71.16;100008.56;5121097;28;20959;-65
2022/06/30 01:32:47;;;;;;;4.57;4.17;;;;;;;18.71;70.36;100002.13;5121306;28;20490;-65
2022/06/30 01:35:14;;;;;;;8.70;4.83;;;;;;;18.75;69.73;100000.72;5121853;28;20544;-65
2022/06/30 01:37:49;;;;;;;5.60;4.10;;;;;;;18.73;69.78;99988.38;5121972;28;20513;-65
2022/06/30 01:40:17;;;;;;;5.23;4.70;;;;;;;18.60;70.11;99986.44;5121514;28;20896;-65
2022/06/30 01:42:44;;;;;;;5.63;5.13;;;;;;;18.55;70.00;99992.47;5122187;28;20485;-66
2022/06/30 01:45:11;;;;;;;5.10;4.60;;;;;;;18.40;70.71;99989.88;5121067;28;20450;-66
2022/06/30 01:47:37;;;;;;;5.23;4.73;;;;;;;18.37;70.70;99982.16;5120725;28;20493;-66
2022/06/30 01:50:05;;;;;;;6.57;4.60;;;;;;;18.27;70.98;99981.66;5121306;28;20457;-66
2022/06/30 01:52:32;;;;;;;4.77;4.37;;;;;;;18.51;69.95;99974.94;5120683;28;20462;-66
2022/06/30 01:54:59;;;;;;;5.17;4.67;;;;;;;18.44;70.05;99976.78;5120776;28;20495;-66
2022/06/30 01:57:27;;;;;;;4.60;4.20;;;;;;;18.44;70.12;99968.66;5121454;28;20588;-66
2022/06/30 01:59:53;;;;;;;6.67;4.30;;;;;;;18.49;69.91;99973.47;5120619;28;20865;-66
2022/06/30 02:02:20;;;;;;;5.50;4.57;;;;;;;18.49;70.07;99963.50;5120262;28;21163;-66
2022/06/30 02:04:51;;;;;;;5.70;5.20;;;;;;;18.41;70.22;99958.22;5121565;28;21113;-66
2022/06/30 02:07:18;;;;;;;5.83;4.67;;;;;;;18.34;70.70;99951.94;5120607;28;20492;-66
2022/06/30 02:09:44;;;;;;;4.80;4.40;;;;;;;18.35;70.53;99957.16;5121773;28;20446;-66
2022/06/30 02:14:57;;;;;;;4.67;4.23;;;;;;;18.33;70.88;99955.66;5113849;28;20937;-66
2022/06/30 02:17:24;;;;;;;5.50;4.80;;;;;;;18.09;71.95;99960.53;5119291;28;20486;-66
2022/06/30 02:19:51;;;;;;;6.03;5.53;;;;;;;17.76;73.53;99963.78;5121201;28;20458;-66
2022/06/30 02:22:18;;;;;;;5.03;4.57;;;;;;;17.67;74.33;99962.22;5119613;28;20502;-66
2022/06/30 02:24:44;;;;;;;5.30;4.23;;;;;;;17.84;73.90;99963.59;5121150;28;20473;-66
2022/06/30 02:27:11;;;;;;;5.77;5.27;;;;;;;17.94;73.22;99976.84;5105238;28;20477;-66
2022/06/30 02:29:38;;;;;;;6.50;4.80;;;;;;;17.96;72.98;99971.22;5120928;28;20458;-66
2022/06/30 02:32:07;;;;;;;4.97;4.50;;;;;;;17.93;73.25;99977.03;5119052;28;20474;-66
2022/06/30 02:34:34;;;;;;;6.50;5.37;;;;;;;17.92;73.50;99973.50;5120413;28;20470;-65
2022/06/30 02:37:01;;;;;;;5.20;4.70;;;;;;;17.65;74.58;99973.25;5120398;28;20473;-66
2022/06/30 02:39:27;;;;;;;5.50;5.00;;;;;;;17.58;74.97;99980.44;5120468;28;20466;-65
2022/06/30 02:41:54;;;;;;;5.07;4.57;;;;;;;17.60;75.05;99977.53;5120271;28;20489;-65
2022/06/30 02:44:20;;;;;;;6.40;5.80;;;;;;;17.63;75.24;99980.69;5120261;28;20520;-64
2022/06/30 02:46:49;;;;;;;5.93;4.87;;;;;;;17.66;75.07;99982.19;5119051;28;20508;-65
2022/06/30 02:49:18;;;;;;;7.50;4.90;;;;;;;17.67;75.33;99979.28;5120682;28;20446;-65
2022/06/30 02:51:44;;;;;;;6.43;5.83;;;;;;;17.68;75.35;99975.53;5119741;28;20506;-64
2022/06/30 02:54:11;;;;;;;6.43;5.50;;;;;;;17.70;75.07;99980.75;5120650;28;20453;-64
2022/06/30 02:56:37;;;;;;;6.80;6.17;;;;;;;17.67;75.41;99970.31;5119839;28;20522;-64
2022/06/30 02:59:04;;;;;;;5.40;4.90;;;;;;;17.52;76.29;99967.69;5120493;28;20473;-65
2022/06/30 03:01:31;;;;;;;6.17;5.27;;;;;;;17.77;75.37;99968.13;5118382;28;20859;-65
2022/06/30 03:03:58;;;;;;;5.87;5.27;;;;;;;17.75;75.72;99964.78;5120030;28;20510;-64
2022/06/30 03:06:26;;;;;;;5.63;5.10;;;;;;;17.74;75.74;99962.28;5119795;28;20560;-64
2022/06/30 03:08:53;;;;;;;6.23;5.67;;;;;;;17.70;75.63;99957.25;5120230;28;20442;-66
2022/06/30 03:11:20;;;;;;;5.43;4.93;;;;;;;17.61;76.18;99963.81;5119094;28;20474;-64
2022/06/30 03:13:46;;;;;;;5.73;5.23;;;;;;;17.58;76.25;99966.09;5119897;28;20444;-64
2022/06/30 03:16:13;;;;;;;6.13;5.53;;;;;;;17.52;76.96;99966.88;5117433;28;20499;-64
2022/06/30 03:18:40;;;;;;;6.03;5.53;;;;;;;17.58;77.21;99968.78;5119436;28;20527;-65
2022/06/30 03:21:07;;;;;;;6.23;4.90;;;;;;;17.61;77.04;99963.00;5119235;28;20554;-65
2022/06/30 03:23:35;;;;;;;5.20;4.80;;;;;;;17.57;76.94;99959.84;5119567;28;20482;-65
2022/06/30 03:26:02;;;;;;;5.47;4.97;;;;;;;17.62;77.17;99954.69;5119384;28;20863;-66
2022/06/30 03:28:29;;;;;;;6.47;5.97;;;;;;;17.86;76.43;99964.31;5119950;28;20434;-65
2022/06/30 03:30:56;;;;;;;7.47;5.50;;;;;;;17.83;76.23;99955.72;5118291;28;20501;-66
2022/06/30 03:33:24;;;;;;;6.27;5.70;;;;;;;18.01;76.39;99960.66;5119246;28;20479;-65
2022/06/30 03:35:50;;;;;;;5.87;5.37;;;;;;;18.06;75.23;99955.50;5119130;28;20533;-66
2022/06/30 03:38:17;;;;;;;12.80;5.93;;;;;;;17.93;75.28;99958.91;5119373;28;20442;-66
2022/06/30 03:40:45;;;;;;;6.40;5.60;;;;;;;17.99;75.55;99960.84;5119181;28;20499;-65
2022/06/30 03:43:12;;;;;;;6.70;5.60;;;;;;;18.23;74.97;99956.03;5119205;28;20733;-66
2022/06/30 03:45:38;;;;;;;5.83;5.33;;;;;;;19.07;72.58;99951.47;5118051;28;20473;-65
2022/06/30 03:48:06;;;;;;;5.93;5.33;;;;;;;20.24;68.78;99947.44;5118026;28;20450;-66
2022/06/30 03:50:33;;;;;;;6.57;5.87;;;;;;;20.74;65.01;99949.63;5118636;28;20482;-66
2022/06/30 03:53:00;;;;;;;5.40;4.90;;;;;;;21.69;61.81;99945.34;5119120;28;20457;-66
2022/06/30 03:55:27;;;;;;;5.93;5.17;;;;;;;22.33;59.20;99937.91;5118540;28;20501;-66
2022/06/30 03:57:55;;;;;;;9.23;4.47;;;;;;;22.91;56.80;99940.16;5119335;28;20441;-66
2022/06/30 04:00:23;;;;;;;5.20;4.53;;;;;;;23.53;55.35;99947.28;5118560;28;20469;-66
2022/06/30 04:02:49;;;;;;;5.13;4.73;;;;;;;23.85;53.44;99949.75;5118498;28;20528;-64
2022/06/30 04:05:16;;;;;;;5.47;4.97;;;;;;;24.30;52.31;99959.25;5118716;28;20535;-64
2022/06/30 04:07:46;;;;;;;5.87;4.67;;;;;;;24.29;50.62;99952.16;5118607;28;20491;-66
2022/06/30 04:10:14;;;;;;;5.27;4.77;;;;;;;23.60;52.57;99948.00;5117934;28;20430;-66
2022/06/30 04:12:41;;;;;;;6.93;4.60;;;;;;;23.49;53.33;99948.84;5118425;28;20442;-68
2022/06/30 04:15:10;;;;;;;4.47;4.10;;;;;;;23.48;53.98;99947.16;5118416;28;20431;-67
2022/06/30 04:17:37;;;;;;;5.80;4.70;;;;;;;23.10;54.65;99957.31;5116687;28;20460;-69
2022/06/30 04:20:05;;;;;;;5.70;5.10;;;;;;;21.94;57.82;99957.09;5117014;28;20480;-68
2022/06/30 04:22:32;;;;;;;5.50;5.00;;;;;;;21.00;60.82;99954.09;5116349;28;20482;-68
2022/06/30 04:24:58;;;;;;;5.73;5.20;;;;;;;20.40;63.16;99953.47;5117915;28;20485;-70
2022/06/30 04:27:25;;;;;;;5.70;5.10;;;;;;;20.24;65.27;99955.59;5114137;28;20514;-69
2022/06/30 04:29:52;;;;;;;6.50;5.90;;;;;;;20.36;64.23;99960.34;5114331;28;20442;-68
2022/06/30 04:35:05;;;;;;;6.07;5.40;;;;;;;19.71;67.08;99950.16;5113539;28;20480;-67
2022/06/30 04:37:32;;;;;;;5.97;5.30;;;;;;;19.67;67.87;99946.16;5117143;28;20463;-67
2022/06/30 04:42:39;;;;;;;6.10;5.30;;;;;;;19.50;68.90;99949.28;5117471;28;20461;-67
2022/06/30 04:45:06;;;;;;;5.27;4.77;;;;;;;19.55;69.10;99954.09;5120726;28;20497;-67
2022/06/30 04:47:36;;;;;;;7.07;5.47;;;;;;;19.44;68.93;99954.69;5119671;28;20900;-67
2022/06/30 04:50:04;;;;;;;5.57;4.90;;;;;;;19.11;70.20;99955.44;5120638;28;20816;-67
2022/06/30 04:52:30;;;;;;;6.40;5.80;;;;;;;19.12;70.85;99946.28;5121241;28;20462;-68
2022/06/30 04:54:57;;;;;;;6.37;5.77;;;;;;;19.43;70.24;99950.34;5126296;28;20462;-67
2022/06/30 04:57:24;;;;;;;5.93;5.40;;;;;;;19.35;70.77;99949.47;5124791;28;20499;-68
2022/06/30 04:59:50;;;;;;;7.50;5.47;;;;;;;19.37;71.25;99947.41;5124559;28;20431;-68
2022/06/30 05:02:17;;;;;;;6.00;5.47;;;;;;;19.49;70.41;99944.88;5123733;28;21056;-69
2022/06/30 05:04:45;;;;;;;6.30;5.80;;;;;;;19.86;69.73;99952.66;5124632;28;20871;-68
2022/06/30 05:07:12;;;;;;;6.47;5.87;;;;;;;20.03;68.78;99953.94;5124603;28;20547;-68
2022/06/30 05:09:39;;;;;;;7.63;6.40;;;;;;;19.99;68.85;99949.13;5122847;28;20464;-70
2022/06/30 05:12:07;;;;;;;7.33;6.63;;;;;;;20.20;66.52;99957.03;5124152;28;21051;-65
2022/06/30 05:14:33;;;;;;;7.77;7.07;;;;;;;20.32;66.44;99943.66;5125724;28;20449;-69
2022/06/30 05:17:00;;;;;;;8.87;6.17;;;;;;;20.11;67.33;99961.03;5123832;28;20474;-69
2022/06/30 05:19:27;;;;;;;7.43;6.80;;;;;;;20.25;66.23;99956.41;5124629;28;20449;-69
2022/06/30 05:21:55;;;;;;;8.70;7.50;;;;;;;20.24;67.71;99947.44;5124150;28;20474;-68
2022/06/30 05:27:06;;;;;;;7.73;6.80;;;;;;;20.47;66.19;99954.28;5092495;28;20478;-67
2022/06/30 05:29:33;;;;;;;8.87;6.57;;;;;;;20.72;65.79;99950.88;5125133;28;20438;-67
2022/06/30 05:32:00;;;;;;;6.53;5.93;;;;;;;21.21;64.72;99944.81;5124994;28;20485;-66
2022/06/30 05:34:27;;;;;;;6.57;5.43;;;;;;;22.22;61.58;99941.31;5126283;28;20501;-68
2022/06/30 05:36:55;;;;;;;6.67;5.37;;;;;;;23.02;58.75;99937.69;5124247;28;20470;-67
2022/06/30 05:39:21;;;;;;;6.20;5.60;;;;;;;22.48;58.93;99926.63;5124294;28;20465;-66
2022/06/30 05:41:48;;;;;;;6.47;5.67;;;;;;;22.50;59.07;99927.25;5124102;28;20497;-67
2022/06/30 05:44:15;;;;;;;6.30;5.70;;;;;;;22.28;59.36;99919.50;5124389;28;20490;-67
2022/06/30 05:46:43;;;;;;;7.10;4.50;;;;;;;21.97;61.70;99936.75;5122646;28;20465;-67
2022/06/30 05:49:10;;;;;;;5.90;5.30;;;;;;;22.24;60.96;99937.34;5124866;28;20457;-67
2022/06/30 05:51:37;;;;;;;5.57;5.00;;;;;;;22.15;61.36;99931.34;5124624;28;20900;-66
2022/06/30 05:54:05;;;;;;;5.20;4.80;;;;;;;22.06;61.86;99935.41;5124620;28;20511;-66
2022/06/30 05:56:32;;;;;;;5.73;5.17;;;;;;;23.25;59.90;99932.38;5124423;28;20473;-68
2022/06/30 05:58:58;;;;;;;6.43;5.27;;;;;;;24.83;54.26;99927.38;5124715;28;20454;-68
2022/06/30 06:01:25;;;;;;;5.97;5.47;;;;;;;25.64;50.03;99925.34;5123908;28;21035;-67
2022/06/30 06:03:52;;;;;;;7.37;5.57;;;;;;;25.82;49.33;99929.72;5123803;28;20446;-66
2022/06/30 06:06:18;;;;;;;5.47;5.07;;;;;;;25.70;49.71;99916.13;5124142;28;20481;-67
2022/06/30 06:08:45;;;;;;;6.47;5.50;;;;;;;26.08;49.34;99911.81;5124986;28;20434;-67
2022/06/30 06:11:13;;;;;;;6.37;5.77;;;;;;;27.13;46.40;99916.41;5124090;28;20465;-67
2022/06/30 06:13:40;;;;;;;5.83;5.00;;;;;;;27.58;45.94;99917.97;5124489;28;20472;-67
2022/06/30 06:16:06;;;;;;;7.47;5.80;;;;;;;27.31;46.09;99919.91;5123808;28;20982;-67
2022/06/30 06:18:33;;;;;;;6.07;5.47;;;;;;;27.63;45.55;99925.44;5123423;28;20454;-67
2022/06/30 06:21:00;;;;;;;7.00;5.57;;;;;;;28.09;44.60;99922.22;5123897;28;20507;-67
2022/06/30 06:23:26;;;;;;;6.07;5.43;;;;;;;29.18;41.87;99927.16;5124480;28;20477;-67
2022/06/30 06:25:53;;;;;;;5.63;5.13;;;;;;;28.88;42.72;99929.53;5123643;28;20466;-68
2022/06/30 06:31:07;;;;;;;6.90;5.47;;;;;;;28.56;43.35;99910.44;5123960;28;20477;-67
2022/06/30 06:33:34;;;;;;;6.17;5.57;;;;;;;28.18;44.20;99909.66;5123641;28;20453;-67
2022/06/30 06:36:01;;;;;;;6.68;5.93;;;;;;;29.03;42.40;99919.69;5074583;28;1393119;-68
2022/06/30 06:38:28;;;;;;;5.90;5.40;;;;;;;30.08;40.43;99920.31;5125066;28;20251;-68
2022/06/30 06:40:54;;;;;;;4.97;4.57;;;;;;;31.35;38.48;99915.38;5124401;28;20489;-69
2022/06/30 06:43:22;;;;;;;6.03;5.13;;;;;;;31.88;36.57;99920.25;5125352;28;20468;-68
2022/06/30 06:45:49;;;;;;;7.27;5.80;;;;;;;31.44;37.52;99921.13;5123174;28;20508;-68
2022/06/30 06:48:16;;;;;;;7.97;5.10;;;;;;;31.73;36.92;99918.44;5124685;28;20787;-68
2022/06/30 06:50:42;;;;;;;6.40;5.80;;;;;;;32.08;36.52;99913.69;5124184;28;20485;-68
2022/06/30 06:53:09;;;;;;;6.07;5.47;;;;;;;31.27;38.50;99910.50;5125079;28;20453;-68
2022/06/30 06:55:36;;;;;;;6.03;5.40;;;;;;;31.10;39.37;99913.63;5124182;28;20476;-68
2022/06/30 06:58:05;;;;;;;6.63;6.03;;;;;;;31.64;37.56;99901.66;5125178;28;20450;-68
2022/06/30 07:00:33;;;;;;;6.53;5.97;;;;;;;31.44;37.93;99910.06;5124198;28;20470;-68
2022/06/30 07:02:59;;;;;;;6.53;5.53;;;;;;;34.21;32.99;99908.47;5123819;28;20482;-68
2022/06/30 07:05:26;;;;;;;6.50;5.60;;;;;;;33.41;34.25;99911.19;5123236;28;20458;-68
2022/06/30 07:07:58;;;;;;;6.57;6.00;;;;;;;31.34;37.64;99911.00;5124213;28;20525;-68
2022/06/30 07:10:24;;;;;;;6.30;5.27;;;;;;;30.95;39.65;99911.78;5123917;28;20443;-69
2022/06/30 07:12:51;;;;;;;6.13;5.40;;;;;;;31.32;38.99;99908.50;5124756;28;20854;-68
2022/06/30 07:15:18;;;;;;;7.03;6.20;;;;;;;30.87;39.46;99913.19;5123671;28;20435;-67
2022/06/30 07:17:46;;;;;;;6.93;6.30;;;;;;;30.47;40.49;99903.13;5123202;28;20462;-69
2022/06/30 07:20:13;;;;;;;6.53;5.93;;;;;;;31.12;39.62;99909.47;5124121;28;20423;-68
2022/06/30 07:22:39;;;;;;;7.40;6.80;;;;;;;31.10;39.19;99911.69;5124056;28;20477;-68
2022/06/30 07:25:07;;;;;;;6.73;6.23;;;;;;;31.44;39.36;99912.84;5123738;28;20470;-66
2022/06/30 07:27:34;;;;;;;12.00;7.00;;;;;;;31.26;39.01;99914.34;5124221;28;20477;-68
2022/06/30 07:30:01;;;;;;;7.03;6.27;;;;;;;32.11;37.54;99901.25;5124051;28;20419;-69
2022/06/30 07:32:28;;;;;;;6.80;6.23;;;;;;;31.59;37.99;99909.16;5123203;28;20500;-68
2022/06/30 07:34:56;;;;;;;8.50;6.93;;;;;;;31.01;40.01;99907.06;5123937;28;20505;-69
2022/06/30 07:37:22;;;;;;;7.37;6.77;;;;;;;31.44;39.05;99908.16;5123145;28;20470;-68
2022/06/30 07:39:49;;;;;;;7.77;7.07;;;;;;;30.25;41.25;99904.28;5123952;28;20430;-69
2022/06/30 07:42:16;;;;;;;8.23;7.50;;;;;;;31.28;39.60;99901.06;5123496;28;20474;-69
2022/06/30 07:44:43;;;;;;;8.23;7.53;;;;;;;31.75;38.69;99890.50;5124010;28;20482;-69
2022/06/30 07:47:10;;;;;;;8.63;6.13;;;;;;;32.45;37.47;99890.06;5121685;28;20485;-68
2022/06/30 07:49:38;;;;;;;7.90;7.30;;;;;;;33.71;35.43;99904.34;5123830;28;20435;-68
2022/06/30 07:52:06;;;;;;;8.13;6.60;;;;;;;34.14;34.80;99895.78;5123040;28;20481;-69
2022/06/30 07:54:33;;;;;;;8.07;7.47;;;;;;;33.63;34.79;99906.94;5123559;28;20450;-69
2022/06/30 07:56:59;;;;;;;8.67;7.97;;;;;;;34.19;34.18;99894.06;5122991;28;20488;-69
2022/06/30 07:59:26;;;;;;;9.10;8.20;;;;;;;33.57;35.18;99892.38;5123988;28;20453;-69
2022/06/30 08:01:53;;;;;;;7.33;6.73;;;;;;;34.33;34.74;99894.91;5122505;28;20798;-66
2022/06/30 08:04:19;;;;;;;8.20;6.93;;;;;;;33.94;35.35;99890.66;5123521;28;20488;-69
2022/06/30 08:06:46;;;;;;;7.87;7.17;;;;;;;33.67;35.65;99899.72;5122525;28;20475;-69
2022/06/30 08:09:14;;;;;;;10.37;7.87;;;;;;;33.45;35.74;99903.09;5123663;28;20426;-70
2022/06/30 08:11:41;;;;;;;8.10;7.30;;;;;;;33.83;36.13;99900.28;5123134;28;20466;-68
2022/06/30 08:14:07;;;;;;;8.37;7.60;;;;;;;35.16;33.22;99899.53;5123588;28;20505;-69
2022/06/30 08:16:34;;;;;;;8.47;7.60;;;;;;;33.06;36.01;99907.00;5122303;28;20470;-70
2022/06/30 08:19:02;;;;;;;7.03;6.43;;;;;;;33.29;36.07;99911.66;5123205;28;20898;-68
2022/06/30 08:21:30;;;;;;;9.07;8.27;;;;;;;34.02;34.67;99908.53;5121868;28;20484;-69
2022/06/30 08:23:57;;;;;;;8.53;7.57;;;;;;;36.00;31.42;99909.13;5123174;28;20467;-66
2022/06/30 08:26:25;;;;;;;8.93;8.23;;;;;;;32.34;37.49;99902.38;5123208;28;20474;-69
2022/06/30 08:28:52;;;;;;;7.90;7.30;;;;;;;32.25;38.83;99905.75;5123284;28;20470;-68
2022/06/30 08:31:18;;;;;;;7.90;7.20;;;;;;;33.76;35.17;99909.78;5122358;28;20482;-68
2022/06/30 08:33:47;;;;;;;8.63;7.93;;;;;;;34.69;32.73;99899.72;5123057;28;20488;-68
2022/06/30 08:36:14;;;;;;;9.20;8.30;;;;;;;33.10;36.27;99895.00;5122395;28;20462;-69
2022/06/30 08:38:40;;;;;;;10.20;8.67;;;;;;;34.67;33.16;99893.66;5123242;28;20477;-69
2022/06/30 08:43:54;;;;;;;17.63;8.13;;;;;;;35.20;32.42;99893.03;5123347;28;20448;-69
2022/06/30 08:46:21;;;;;;;9.10;8.30;;;;;;;32.85;36.15;99901.75;5121185;28;20486;-70
2022/06/30 08:48:48;;;;;;;8.57;7.83;;;;;;;33.36;36.47;99912.09;5123009;28;20454;-69
2022/06/30 08:51:16;;;;;;;8.60;7.90;;;;;;;34.37;34.15;99898.69;5122580;28;20470;-69
2022/06/30 08:53:48;;;;;;;8.97;8.07;;;;;;;33.73;35.31;99904.03;5122785;28;20449;-69
2022/06/30 08:56:15;;;;;;;9.03;8.13;;;;;;;33.54;36.63;99898.50;5122326;28;20474;-69
2022/06/30 08:58:43;;;;;;;8.23;7.53;;;;;;;35.34;34.19;99889.41;5123508;28;20431;-68
2022/06/30 09:01:11;;;;;;;7.93;7.23;;;;;;;36.25;31.93;99898.47;5122340;28;20561;-69
2022/06/30 09:03:38;;;;;;;7.83;7.20;;;;;;;35.54;31.63;99894.47;5122312;28;20458;-69
2022/06/30 09:06:06;;;;;;;8.80;7.90;;;;;;;35.34;31.34;99889.41;5122168;28;20538;-69
2022/06/30 09:08:33;;;;;;;7.73;7.13;;;;;;;35.07;33.17;99897.50;5123158;28;20458;-69
2022/06/30 09:10:59;;;;;;;8.57;7.77;;;;;;;34.67;33.17;99894.47;5122635;28;20469;-68
2022/06/30 09:13:26;;;;;;;8.07;7.47;;;;;;;34.98;33.05;99891.06;5122983;28;20908;-68
2022/06/30 09:15:53;;;;;;;8.50;7.30;;;;;;;34.65;33.91;99895.91;5121263;28;20494;-68
2022/06/30 09:18:25;;;;;;;7.87;7.23;;;;;;;35.59;30.90;99893.47;5121722;28;20470;-69
2022/06/30 09:20:52;;;;;;;7.57;6.87;;;;;;;36.18;29.90;99888.59;5121853;28;20466;-69
2022/06/30 09:23:20;;;;;;;7.87;7.10;;;;;;;35.02;31.80;99894.84;5122373;28;20553;-69
2022/06/30 09:25:48;;;;;;;7.37;6.70;;;;;;;34.99;32.21;99898.22;5121777;28;20470;-69
2022/06/30 09:28:15;;;;;;;7.57;6.97;;;;;;;36.25;29.45;99899.31;5124634;28;20483;-68
2022/06/30 09:30:42;;;;;;;7.80;7.10;;;;;;;36.30;31.40;99895.53;5125785;28;20554;-69
2022/06/30 09:33:09;;;;;;;8.00;7.30;;;;;;;35.70;31.57;99896.84;5125617;28;20475;-68
2022/06/30 09:35:38;;;;;;;8.00;7.10;;;;;;;36.49;31.28;99896.13;5125296;28;20473;-68
2022/06/30 09:38:06;;;;;;;7.70;7.00;;;;;;;36.00;29.87;99898.81;5126460;28;20449;-68
2022/06/30 09:40:34;;;;;;;7.70;6.87;;;;;;;37.58;27.17;99897.19;5125581;28;20490;-68
2022/06/30 09:43:01;;;;;;;6.10;5.70;;;;;;;37.78;28.86;99892.09;5126128;28;20984;-68
2022/06/30 09:45:37;;;;;;;6.97;6.47;;;;;;;37.65;28.77;99888.34;5125371;28;20477;-68
2022/06/30 09:48:04;;;;;;;7.03;6.43;;;;;;;36.62;29.38;99891.53;5125473;28;20477;-68
2022/06/30 09:50:31;;;;;;;6.73;6.20;;;;;;;38.08;27.69;99889.38;5125505;28;20490;-69
2022/06/30 09:53:09;;;;;;;6.40;5.90;;;;;;;37.75;27.98;99881.59;5126244;28;20444;-69
2022/06/30 09:55:44;;;;;;;7.10;6.50;;;;;;;35.16;30.70;99882.88;5125035;28;20459;-70
2022/06/30 09:58:12;;;;;;;9.83;6.67;;;;;;;35.92;28.55;99888.50;5124695;28;20516;-68
2022/06/30 10:00:47;;;;;;;7.30;6.70;;;;;;;34.49;31.80;99873.22;5123214;28;20477;-68
2022/06/30 10:03:16;;;;;;;7.53;6.90;;;;;;;32.45;35.66;99885.34;5124080;28;20692;-69
2022/06/30 10:05:44;;;;;;;7.17;6.57;;;;;;;33.58;35.13;99882.94;5124734;28;20470;-69
2022/06/30 10:08:13;;;;;;;7.17;6.57;;;;;;;32.51;34.03;99880.56;5124497;28;20430;-68
2022/06/30 10:10:42;;;;;;;8.37;7.60;;;;;;;32.78;34.70;99881.94;5124203;28;20508;-69
2022/06/30 10:13:14;;;;;;;6.37;5.87;;;;;;;35.95;28.90;99873.09;5124697;28;20479;-68
2022/06/30 10:15:42;;;;;;;7.03;6.33;;;;;;;37.27;26.93;99878.72;5123609;28;20466;-68
2022/06/30 10:18:09;;;;;;;7.03;6.33;;;;;;;37.06;27.69;99875.72;5124817;28;20529;-68
2022/06/30 10:20:38;;;;;;;6.70;6.20;;;;;;;36.44;27.57;99875.94;5124361;28;20526;-68
2022/06/30 10:23:05;;;;;;;7.13;6.40;;;;;;;35.82;29.08;99875.66;5123600;28;20811;-69
2022/06/30 10:25:34;;;;;;;6.60;6.00;;;;;;;36.50;27.79;99878.25;5121268;28;20466;-69
2022/06/30 10:28:01;;;;;;;8.07;7.27;;;;;;;34.45;30.24;99873.00;5124805;28;21018;-68
2022/06/30 10:30:35;;;;;;;10.27;6.37;;;;;;;34.50;31.62;99869.31;5123659;28;20489;-69
2022/06/30 10:33:04;;;;;;;7.43;6.57;;;;;;;35.12;30.83;99866.00;5123999;28;20453;-69
2022/06/30 10:35:35;;;;;;;6.70;5.93;;;;;;;36.60;30.10;99870.72;5124073;28;20494;-70
2022/06/30 10:38:10;;;;;;;7.10;6.50;;;;;;;36.84;28.95;99875.88;5124176;28;20471;-70
2022/06/30 10:40:48;;;;;;;13.20;6.37;;;;;;;37.24;28.41;99870.16;5122176;28;20472;-70
2022/06/30 10:43:16;;;;;;;6.63;6.03;;;;;;;36.37;29.15;99868.06;5124297;28;20510;-69
2022/06/30 10:45:55;;;;;;;7.30;6.60;;;;;;;37.14;26.42;99862.94;5122059;28;20470;-70
2022/06/30 10:48:22;;;;;;;6.03;5.50;;;;;;;36.47;26.13;99851.03;5123657;28;20447;-70
2022/06/30 10:50:50;;;;;;;7.60;6.10;;;;;;;34.74;29.84;99851.59;5123839;28;20832;-70
2022/06/30 10:53:19;;;;;;;6.33;5.77;;;;;;;36.87;28.84;99858.50;5123705;28;21201;-70
2022/06/30 10:55:55;;;;;;;5.70;5.30;;;;;;;37.37;27.33;99848.84;5123459;28;20497;-70
2022/06/30 10:58:22;;;;;;;6.37;5.87;;;;;;;37.81;26.73;99852.34;5123412;28;20466;-69
2022/06/30 11:01:02;;;;;;;6.00;5.60;;;;;;;36.70;25.78;99840.66;5120534;28;20467;-69
2022/06/30 11:04:02;;;;;;;6.90;6.30;;;;;;;36.70;26.78;99839.81;5107335;28;20958;-69
2022/06/30 11:06:58;;;;;;;6.43;5.83;;;;;;;34.59;32.13;99844.41;5120843;28;20485;-69
2022/06/30 11:10:04;;;;;;;7.50;6.80;;;;;;;34.95;30.72;99838.06;5121485;28;20490;-68
2022/06/30 11:12:55;;;;;;;7.17;5.70;;;;;;;35.85;28.47;99832.50;5121148;28;20470;-70
2022/06/30 11:15:22;;;;;;;8.10;6.30;;;;;;;36.86;28.21;99845.75;5120330;28;20529;-69
2022/06/30 11:17:52;;;;;;;5.60;5.20;;;;;;;36.15;26.53;99828.00;5120642;28;20482;-69
2022/06/30 11:20:19;;;;;;;5.70;5.20;;;;;;;34.51;29.66;99819.03;5121075;28;20426;-69
2022/06/30 11:22:46;;;;;;;6.63;5.00;;;;;;;35.52;27.73;99815.28;5120504;28;21280;-69
2022/06/30 11:27:17;;;;;;;5.37;4.97;;;;;;;35.95;26.55;99818.28;5120506;28;20450;-69
2022/06/30 11:28:03;;;;;;;5.90;5.23;;;;;;;35.88;27.79;99815.16;5119995;28;20525;-69
2022/06/30 11:30:31;;;;;;;5.30;4.83;;;;;;;34.10;29.23;99810.72;5120149;28;20477;-68
2022/06/30 11:32:58;;;;;;;5.20;4.80;;;;;;;33.10;30.98;99811.91;5120597;28;20835;-69
2022/06/30 11:35:29;;;;;;;6.50;5.90;;;;;;;33.98;29.46;99805.69;5120581;28;20517;-68
2022/06/30 11:37:55;;;;;;;5.80;5.30;;;;;;;33.40;31.53;99801.47;5120217;28;20465;-69
2022/06/30 11:40:22;;;;;;;10.60;4.80;;;;;;;35.79;27.92;99806.75;5120468;28;20461;-68
2022/06/30 11:42:50;;;;;;;5.23;4.73;;;;;;;36.11;27.62;99803.94;5121027;28;20450;-69
2022/06/30 11:45:19;;;;;;;6.03;4.60;;;;;;;36.13;25.56;99807.25;5119371;28;20461;-68
2022/06/30 11:47:52;;;;;;;5.47;4.97;;;;;;;36.32;26.06;99810.59;5120048;28;20461;-69
2022/06/30 11:50:21;;;;;;;5.47;4.97;;;;;;;36.03;26.78;99802.78;5120137;28;20458;-70
2022/06/30 11:52:47;;;;;;;4.77;4.37;;;;;;;36.57;25.26;99805.38;5120205;28;20438;-69
2022/06/30 11:55:14;;;;;;;5.23;4.70;;;;;;;35.26;25.52;99800.09;5119984;28;20450;-67